createdAt,value
2022-11-27T00:02:41.112Z,101809.50
2022-11-27T00:05:58.768Z,101797.13
2022-11-27T00:09:03.997Z,101801.94
2022-11-27T00:12:07.347Z,101796.69
2022-11-27T00:15:14.596Z,101800.69
2022-11-27T00:18:19.803Z,101806.06
2022-11-27T00:21:25.266Z,101809.88
2022-11-27T00:24:28.351Z,101797.34
2022-11-27T00:27:30.897Z,101806.41
2022-11-27T00:30:34.909Z,101796.00
2022-11-27T00:33:37.623Z,101797.44
2022-11-27T00:36:43.929Z,101793.81
2022-11-27T00:39:49.464Z,101794.97
2022-11-27T00:42:52.676Z,101796.78
2022-11-27T00:45:55.315Z,101803.41
2022-11-27T00:48:59.693Z,101795.19
2022-11-27T00:52:02.543Z,101799.06
2022-11-27T00:55:05.993Z,101794.38
2022-11-27T00:58:08.655Z,101794.13
2022-11-27T01:01:18.280Z,101791.59
2022-11-27T01:04:20.883Z,101789.34
2022-11-27T01:07:23.930Z,101801.00
2022-11-27T01:10:26.552Z,101810.44
2022-11-27T01:13:31.846Z,101806.88
2022-11-27T01:16:35.218Z,101806.88
2022-11-27T01:19:38.398Z,101803.91
2022-11-27T01:22:41.121Z,101809.19
2022-11-27T01:25:44.102Z,101805.63
2022-11-27T01:28:46.856Z,101804.69
2022-11-27T01:31:49.763Z,101801.47
2022-11-27T01:34:54.352Z,101811.56
2022-11-27T01:37:57.839Z,101800.47
2022-11-27T01:41:12.951Z,101801.47
2022-11-27T01:44:24.688Z,101798.16
2022-11-27T01:47:32.813Z,101804.94
2022-11-27T01:50:39.715Z,101795.66
2022-11-27T01:53:42.959Z,101785.63
2022-11-27T01:56:50.336Z,101778.25
2022-11-27T01:59:54.759Z,101776.78
2022-11-27T02:02:57.980Z,101775.78
2022-11-27T02:06:00.564Z,101775.84
2022-11-27T02:09:04.089Z,101780.03
2022-11-27T02:12:26.669Z,101779.31
2022-11-27T02:15:41.661Z,101783.47
2022-11-27T02:19:07.025Z,101785.53
2022-11-27T02:22:31.044Z,101795.97
2022-11-27T02:26:23.029Z,101794.59
2022-11-27T02:29:31.651Z,101802.50
2022-11-27T02:32:49.375Z,101801.00
2022-11-27T02:35:59.214Z,101804.66
2022-11-27T02:39:17.995Z,101819.81
2022-11-27T02:42:21.899Z,101809.16
2022-11-27T02:45:33.447Z,101808.69
2022-11-27T02:48:43.060Z,101804.09
2022-11-27T02:51:52.234Z,101805.09
2022-11-27T02:54:58.208Z,101816.63
2022-11-27T02:58:03.744Z,101812.13
2022-11-27T03:01:07.978Z,101821.66
2022-11-27T03:04:17.286Z,101820.28
2022-11-27T03:07:32.404Z,101827.63
2022-11-27T03:10:55.200Z,101830.97
2022-11-27T03:14:02.384Z,101830.03
2022-11-27T03:17:33.000Z,101833.22
2022-11-27T03:20:43.583Z,101836.25
2022-11-27T03:23:46.347Z,101831.88
2022-11-27T03:26:49.414Z,101837.63
2022-11-27T03:29:58.213Z,101827.38
2022-11-27T03:33:02.400Z,101830.81
2022-11-27T03:36:31.096Z,101836.59
2022-11-27T03:39:34.560Z,101831.28
2022-11-27T03:43:08.322Z,101829.81
2022-11-27T03:46:23.908Z,101822.22
2022-11-27T03:49:45.271Z,101825.91
2022-11-27T03:53:06.344Z,101824.88
2022-11-27T03:56:11.714Z,101817.19
2022-11-27T03:59:20.508Z,101822.22
2022-11-27T04:02:46.189Z,101824.41
2022-11-27T04:05:49.213Z,101828.66
2022-11-27T04:08:51.678Z,101831.19
2022-11-27T04:11:54.378Z,101824.41
2022-11-27T04:14:56.787Z,101834.25
2022-11-27T04:17:59.461Z,101827.84
2022-11-27T04:21:02.441Z,101829.66
2022-11-27T04:24:05.116Z,101831.50
2022-11-27T04:27:07.805Z,101835.53
2022-11-27T04:30:11.308Z,101832.91
2022-11-27T04:33:14.415Z,101826.84
2022-11-27T04:36:17.171Z,101825.91
2022-11-27T04:39:20.213Z,101823.84
2022-11-27T04:42:23.176Z,101831.28
2022-11-27T04:45:25.823Z,101823.28
2022-11-27T04:48:28.714Z,101829.69
2022-11-27T04:51:31.433Z,101826.03
2022-11-27T04:54:34.293Z,101822.47
2022-11-27T04:57:37.433Z,101827.63
2022-11-27T05:00:40.715Z,101820.75
2022-11-27T05:03:43.412Z,101823.97
2022-11-27T05:06:46.579Z,101822.00
2022-11-27T05:09:49.045Z,101827.75
2022-11-27T05:12:51.838Z,101827.63
2022-11-27T05:15:54.445Z,101827.84
2022-11-27T05:18:57.227Z,101823.84
2022-11-27T05:21:59.931Z,101829.09
2022-11-27T05:25:02.971Z,101833.16
2022-11-27T05:28:06.047Z,101835.44
2022-11-27T05:31:09.022Z,101839.00
2022-11-27T05:34:12.695Z,101833.03
2022-11-27T05:37:19.510Z,101825.66
2022-11-27T05:40:22.889Z,101835.31
2022-11-27T05:43:25.945Z,101833.72
2022-11-27T05:46:28.788Z,101838.53
2022-11-27T05:49:31.509Z,101836.34
2022-11-27T05:52:34.317Z,101840.03
2022-11-27T05:55:37.066Z,101841.06
2022-11-27T05:58:41.141Z,101836.09
2022-11-27T06:01:44.387Z,101841.16
2022-11-27T06:04:46.996Z,101837.16
2022-11-27T06:07:50.245Z,101840.69
2022-11-27T06:10:52.872Z,101844.13
2022-11-27T06:13:55.610Z,101840.13
2022-11-27T06:16:58.329Z,101844.28
2022-11-27T06:20:01.995Z,101848.59
2022-11-27T06:23:04.527Z,101848.03
2022-11-27T06:26:27.631Z,101855.50
2022-11-27T06:29:30.599Z,101851.81
2022-11-27T06:32:33.279Z,101858.72
2022-11-27T06:35:36.032Z,101854.81
2022-11-27T06:38:39.481Z,101853.44
2022-11-27T06:41:42.515Z,101856.06
2022-11-27T06:44:46.732Z,101859.16
2022-11-27T06:47:49.235Z,101858.94
2022-11-27T06:50:52.190Z,101871.44
2022-11-27T06:53:54.943Z,101864.69
2022-11-27T06:56:58.771Z,101868.34
2022-11-27T07:00:01.937Z,101869.47
2022-11-27T07:03:05.608Z,101872.91
2022-11-27T07:06:10.494Z,101865.34
2022-11-27T07:09:13.620Z,101865.13
2022-11-27T07:12:16.200Z,101859.38
2022-11-27T07:15:19.530Z,101862.03
2022-11-27T07:18:22.295Z,101852.84
2022-11-27T07:21:25.964Z,101851.44
2022-11-27T07:24:28.694Z,101853.75
2022-11-27T07:27:31.592Z,101848.59
2022-11-27T07:30:35.567Z,101841.47
2022-11-27T07:33:38.437Z,101851.34
2022-11-27T07:36:41.436Z,101856.06
2022-11-27T07:40:02.016Z,101855.09
2022-11-27T07:43:05.752Z,101850.97
2022-11-27T07:46:11.693Z,101846.66
2022-11-27T07:49:14.206Z,101838.47
2022-11-27T07:52:17.742Z,101850.41
2022-11-27T07:55:20.551Z,101859.25
2022-11-27T07:58:23.214Z,101862.44
2022-11-27T08:01:26.016Z,101856.94
2022-11-27T08:04:29.120Z,101857.81
2022-11-27T08:07:32.354Z,101863.22
2022-11-27T08:10:37.171Z,101854.03
2022-11-27T08:13:39.862Z,101855.75
2022-11-27T08:16:43.040Z,101855.88
2022-11-27T08:19:45.560Z,101856.78
2022-11-27T08:22:48.627Z,101862.06
2022-11-27T08:25:51.347Z,101854.44
2022-11-27T08:28:54.765Z,101855.47
2022-11-27T08:31:57.509Z,101855.81
2022-11-27T08:35:00.266Z,101856.84
2022-11-27T08:38:03.141Z,101866.38
2022-11-27T08:41:08.440Z,101866.44
2022-11-27T08:44:11.004Z,101859.19
2022-11-27T08:47:16.003Z,101859.66
2022-11-27T08:50:19.077Z,101865.97
2022-11-27T08:53:22.309Z,101866.16
2022-11-27T08:56:25.999Z,101872.41
2022-11-27T08:59:29.145Z,101870.31
2022-11-27T09:02:33.254Z,101879.94
2022-11-27T09:05:36.110Z,101878.66
2022-11-27T09:08:40.285Z,101886.59
2022-11-27T09:11:43.911Z,101887.28
2022-11-27T09:14:46.443Z,101886.06
2022-11-27T09:17:49.370Z,101882.28
2022-11-27T09:20:59.027Z,101881.19
2022-11-27T09:24:02.523Z,101880.38
2022-11-27T09:27:05.084Z,101873.03
2022-11-27T09:30:09.147Z,101868.22
2022-11-27T09:33:11.868Z,101870.34
2022-11-27T09:36:20.619Z,101868.06
2022-11-27T09:39:23.659Z,101869.66
2022-11-27T09:42:40.710Z,101863.44
2022-11-27T09:45:48.333Z,101879.16
2022-11-27T09:48:52.379Z,101874.91
2022-11-27T09:52:11.848Z,101866.66
2022-11-27T09:55:17.964Z,101869.63
2022-11-27T09:58:29.259Z,101869.22
2022-11-27T10:01:40.534Z,101873.59
2022-11-27T10:05:12.217Z,101869.16
2022-11-27T10:08:11.496Z,101870.75
2022-11-27T10:11:33.108Z,101861.53
2022-11-27T10:15:04.277Z,101865.22
2022-11-27T10:18:29.993Z,101853.72
2022-11-27T10:21:51.559Z,101847.50
2022-11-27T10:24:56.928Z,101846.63
2022-11-27T10:28:02.693Z,101841.25
2022-11-27T10:31:14.805Z,101828.22
2022-11-27T10:34:30.750Z,101818.81
2022-11-27T10:38:06.993Z,101819.31
2022-11-27T10:45:12.019Z,101825.41
2022-11-27T10:48:15.697Z,101833.72
2022-11-27T10:51:24.814Z,101826.81
2022-11-27T10:54:34.623Z,101827.97
2022-11-27T10:57:48.811Z,101817.13
2022-11-27T11:01:09.885Z,101826.13
2022-11-27T11:04:36.250Z,101824.88
2022-11-27T11:07:37.734Z,101818.78
2022-11-27T11:11:05.327Z,101812.38
2022-11-27T11:14:26.236Z,101805.88
2022-11-27T11:17:40.850Z,101807.09
2022-11-27T11:20:49.635Z,101800.78
2022-11-27T11:24:05.397Z,101811.13
2022-11-27T11:27:18.567Z,101808.00
2022-11-27T11:30:28.653Z,101807.75
2022-11-27T11:33:37.686Z,101802.41
2022-11-27T11:36:41.143Z,101791.88
2022-11-27T11:39:54.299Z,101785.09
2022-11-27T11:43:02.876Z,101795.81
2022-11-27T11:46:23.283Z,101782.25
2022-11-27T11:49:28.264Z,101789.97
2022-11-27T11:52:36.613Z,101777.03
2022-11-27T11:55:53.856Z,101773.59
2022-11-27T11:59:08.763Z,101769.03
2022-11-27T12:02:39.015Z,101769.81
2022-11-27T12:05:58.832Z,101775.88
2022-11-27T12:09:57.259Z,101770.50
2022-11-27T12:13:00.056Z,101766.59
2022-11-27T12:16:24.971Z,101770.84
2022-11-27T12:19:49.076Z,101771.81
2022-11-27T12:23:22.660Z,101766.19
2022-11-27T12:27:05.699Z,101765.16
2022-11-27T12:30:17.685Z,101755.22
2022-11-27T12:33:23.633Z,101760.63
2022-11-27T12:36:50.949Z,101754.16
2022-11-27T12:39:53.880Z,101751.78
2022-11-27T12:43:24.788Z,101745.78
2022-11-27T12:46:55.183Z,101738.88
2022-11-27T12:50:03.354Z,101737.50
2022-11-27T12:53:31.170Z,101733.63
2022-11-27T12:56:48.450Z,101739.69
2022-11-27T13:00:02.229Z,101733.63
2022-11-27T13:03:08.469Z,101735.25
2022-11-27T13:06:20.080Z,101735.50
2022-11-27T13:09:42.029Z,101730.34
2022-11-27T13:13:01.643Z,101726.13
2022-11-27T13:16:09.158Z,101733.97
2022-11-27T13:19:40.871Z,101733.91
2022-11-27T13:22:44.412Z,101740.19
2022-11-27T13:25:51.937Z,101732.53
2022-11-27T13:29:05.377Z,101734.41
2022-11-27T13:32:10.096Z,101726.22
2022-11-27T13:35:27.844Z,101732.84
2022-11-27T13:38:33.658Z,101730.69
2022-11-27T13:41:40.218Z,101734.22
2022-11-27T13:44:52.614Z,101729.41
2022-11-27T13:47:57.483Z,101733.00
2022-11-27T13:51:01.104Z,101731.09
2022-11-27T13:54:17.023Z,101729.38
2022-11-27T13:57:21.592Z,101731.44
2022-11-27T14:00:35.191Z,101730.09
2022-11-27T14:03:38.115Z,101733.13
2022-11-27T14:06:43.158Z,101734.63
2022-11-27T14:09:51.897Z,101735.34
2022-11-27T14:13:05.720Z,101735.25
2022-11-27T14:16:27.145Z,101733.56
2022-11-27T14:19:34.573Z,101742.31
2022-11-27T14:23:00.556Z,101743.97
2022-11-27T14:26:15.133Z,101740.88
2022-11-27T14:29:21.542Z,101747.91
2022-11-27T14:32:34.997Z,101744.72
2022-11-27T14:35:38.115Z,101748.09
2022-11-27T14:38:40.813Z,101742.47
2022-11-27T14:41:43.560Z,101740.34
2022-11-27T14:44:46.222Z,101733.50
2022-11-27T14:47:52.833Z,101737.84
2022-11-27T14:50:56.798Z,101740.97
2022-11-27T14:54:05.586Z,101749.13
2022-11-27T14:57:18.325Z,101735.38
2022-11-27T15:00:31.613Z,101730.28
2022-11-27T15:03:34.756Z,101731.88
2022-11-27T15:06:43.639Z,101730.28
2022-11-27T15:09:49.996Z,101731.44
2022-11-27T15:12:53.305Z,101726.00
2022-11-27T15:16:07.125Z,101730.44
2022-11-27T15:19:20.200Z,101731.06
2022-11-27T15:22:24.272Z,101720.59
2022-11-27T15:25:44.416Z,101724.28
2022-11-27T15:28:47.165Z,101722.88
2022-11-27T15:31:53.413Z,101718.66
2022-11-27T15:34:56.346Z,101725.94
2022-11-27T15:38:05.570Z,101718.47
2022-11-27T15:41:26.789Z,101724.69
2022-11-27T15:44:32.284Z,101729.41
2022-11-27T15:47:39.923Z,101727.25
2022-11-27T15:50:46.840Z,101722.22
2022-11-27T15:53:54.059Z,101716.03
2022-11-27T15:56:56.891Z,101719.00
2022-11-27T15:59:59.732Z,101719.25
2022-11-27T16:03:02.646Z,101714.13
2022-11-27T16:06:07.025Z,101722.50
2022-11-27T16:09:09.722Z,101712.69
2022-11-27T16:12:12.260Z,101698.34
2022-11-27T16:15:15.564Z,101707.97
2022-11-27T16:18:18.540Z,101707.41
2022-11-27T16:21:25.421Z,101698.59
2022-11-27T16:24:32.007Z,101699.25
2022-11-27T16:27:34.595Z,101702.78
2022-11-27T16:30:37.487Z,101700.75
2022-11-27T16:33:40.914Z,101701.19
2022-11-27T16:36:44.331Z,101690.88
2022-11-27T16:39:48.641Z,101689.03
2022-11-27T16:42:51.414Z,101691.00
2022-11-27T16:45:54.913Z,101694.31
2022-11-27T16:48:59.127Z,101698.28
2022-11-27T16:52:04.187Z,101691.06
2022-11-27T16:55:07.114Z,101694.16
2022-11-27T16:58:10.664Z,101687.34
2022-11-27T17:01:23.016Z,101693.84
2022-11-27T17:04:25.969Z,101694.38
2022-11-27T17:07:30.185Z,101699.88
2022-11-27T17:10:36.959Z,101696.00
2022-11-27T17:13:40.187Z,101694.75
2022-11-27T17:16:43.612Z,101698.31
2022-11-27T17:19:49.120Z,101695.47
2022-11-27T17:22:53.859Z,101689.72
2022-11-27T17:25:56.672Z,101690.66
2022-11-27T17:29:00.203Z,101684.13
2022-11-27T17:32:04.035Z,101687.00
2022-11-27T17:35:08.558Z,101682.63
2022-11-27T17:38:11.443Z,101682.19
2022-11-27T17:41:15.315Z,101678.41
2022-11-27T17:44:17.912Z,101678.06
2022-11-27T17:47:20.760Z,101676.44
2022-11-27T17:50:23.605Z,101684.72
2022-11-27T17:53:27.263Z,101677.16
2022-11-27T17:56:31.593Z,101669.34
2022-11-27T17:59:34.589Z,101669.25
2022-11-27T18:02:37.488Z,101674.19
2022-11-27T18:05:40.436Z,101666.72
2022-11-27T18:08:44.843Z,101666.72
2022-11-27T18:11:47.826Z,101666.03
2022-11-27T18:14:55.428Z,101668.81
2022-11-27T18:18:03.015Z,101669.84
2022-11-27T18:21:18.256Z,101672.94
2022-11-27T18:24:23.569Z,101667.44
2022-11-27T18:27:27.441Z,101672.25
2022-11-27T18:30:30.468Z,101673.03
2022-11-27T18:33:33.583Z,101683.09
2022-11-27T18:36:36.868Z,101668.09
2022-11-27T18:39:40.912Z,101670.06
2022-11-27T18:42:44.447Z,101668.00
2022-11-27T18:45:47.573Z,101660.31
2022-11-27T18:48:51.726Z,101663.53
2022-11-27T18:51:54.498Z,101660.00
2022-11-27T18:54:57.603Z,101658.50
2022-11-27T18:58:00.543Z,101659.19
2022-11-27T19:01:07.689Z,101661.22
2022-11-27T19:04:11.913Z,101659.53
2022-11-27T19:07:14.875Z,101659.41
2022-11-27T19:10:18.564Z,101660.22
2022-11-27T19:13:21.789Z,101661.47
2022-11-27T19:16:28.239Z,101658.72
2022-11-27T19:22:56.472Z,101656.44
2022-11-27T19:26:08.258Z,101655.41
2022-11-27T19:29:12.564Z,101653.44
2022-11-27T19:32:15.321Z,101655.28
2022-11-27T19:35:24.425Z,101661.13
2022-11-27T19:38:29.935Z,101657.13
2022-11-27T19:41:33.254Z,101655.06
2022-11-27T19:44:37.680Z,101651.16
2022-11-27T19:47:40.439Z,101649.66
2022-11-27T19:50:44.485Z,101642.56
2022-11-27T19:53:47.656Z,101646.56
2022-11-27T19:56:51.295Z,101630.44
2022-11-27T19:59:54.418Z,101634.91
2022-11-27T20:02:58.886Z,101628.25
2022-11-27T20:06:05.764Z,101630.22
2022-11-27T20:09:09.062Z,101620.59
2022-11-27T20:12:12.354Z,101625.97
2022-11-27T20:15:17.138Z,101619.31
2022-11-27T20:18:21.425Z,101628.97
2022-11-27T20:21:26.392Z,101621.25
2022-11-27T20:24:29.443Z,101614.97
2022-11-27T20:27:32.195Z,101607.75
2022-11-27T20:30:38.830Z,101600.34
2022-11-27T20:33:42.135Z,101597.59
2022-11-27T20:36:45.435Z,101592.31
2022-11-27T20:39:49.308Z,101592.09
2022-11-27T20:42:52.312Z,101593.44
2022-11-27T20:45:55.404Z,101588.19
2022-11-27T20:48:59.002Z,101590.00
2022-11-27T20:52:05.634Z,101591.16
2022-11-27T20:55:08.508Z,101588.84
2022-11-27T20:58:11.536Z,101582.47
2022-11-27T21:01:18.734Z,101588.84
2022-11-27T21:04:25.141Z,101586.47
2022-11-27T21:07:29.119Z,101585.22
2022-11-27T21:10:32.803Z,101594.94
2022-11-27T21:13:35.673Z,101592.88
2022-11-27T21:16:43.178Z,101599.53
2022-11-27T21:19:47.155Z,101603.75
2022-11-27T21:22:50.307Z,101605.94
2022-11-27T21:25:53.153Z,101611.44
2022-11-27T21:28:57.147Z,101609.84
2022-11-27T21:32:00.003Z,101601.13
2022-11-27T21:35:03.010Z,101594.16
2022-11-27T21:38:05.962Z,101585.56
2022-11-27T21:41:09.323Z,101585.56
2022-11-27T21:44:13.319Z,101587.16
2022-11-27T21:47:16.264Z,101588.09
2022-11-27T21:50:18.924Z,101580.72
2022-11-27T21:53:22.723Z,101586.47
2022-11-27T21:56:26.846Z,101577.31
2022-11-27T21:59:31.830Z,101578.91
2022-11-27T22:02:34.847Z,101576.06
2022-11-27T22:05:37.696Z,101577.22
2022-11-27T22:08:44.798Z,101569.75
2022-11-27T22:11:47.900Z,101571.69
2022-11-27T22:14:50.579Z,101570.00
2022-11-27T22:17:53.583Z,101565.75
2022-11-27T22:20:56.554Z,101569.97
2022-11-27T22:24:01.361Z,101560.16
2022-11-27T22:27:04.071Z,101565.41
2022-11-27T22:30:07.536Z,101561.97
2022-11-27T22:33:10.391Z,101564.03
2022-11-27T22:36:16.258Z,101557.97
2022-11-27T22:39:19.064Z,101559.56
2022-11-27T22:42:21.907Z,101566.44
2022-11-27T22:45:24.723Z,101569.28
2022-11-27T22:48:27.455Z,101562.56
2022-11-27T22:51:31.667Z,101561.03
2022-11-27T22:54:34.762Z,101563.31
2022-11-27T22:57:37.299Z,101567.91
2022-11-27T23:00:41.843Z,101564.69
2022-11-27T23:03:44.564Z,101566.53
2022-11-27T23:06:48.645Z,101561.75
2022-11-27T23:09:52.005Z,101564.03
2022-11-27T23:12:54.678Z,101558.78
2022-11-27T23:15:57.363Z,101562.97
2022-11-27T23:19:00.295Z,101560.91
2022-11-27T23:22:03.112Z,101559.53
2022-11-27T23:25:06.435Z,101562.63
2022-11-27T23:28:09.414Z,101552.22
2022-11-27T23:31:29.366Z,101548.56
2022-11-27T23:34:32.905Z,101543.53
2022-11-27T23:37:35.791Z,101538.25
2022-11-27T23:40:39.460Z,101534.97
2022-11-27T23:43:43.610Z,101538.28
2022-11-27T23:46:46.900Z,101530.50
2022-11-27T23:49:49.867Z,101536.47
2022-11-27T23:52:54.161Z,101530.94
2022-11-27T23:56:01.983Z,101525.00
2022-11-27T23:59:04.883Z,101527.19
